Time;durP1;ratioP1;P1;durP2;ratioP2;P2;SDS_P1;SDS_P2;PMS_P1;PMS_P2;Temp;Humidity;BMP_temperature;BMP_pressure;BME280_temperature;BME280_humidity;BME280_pressure;Samples;Min_cycle;Max_cycle;Signal;HPM_P1;HPM_P2
2024/01/24 00:00:12;;;;;;;;;;;15.70;58.20;;;;;;10105532;28;93488;-75
2024/01/24 00:05:15;;;;;;;;;;;15.70;58.30;;;;;;10119844;28;94268;-74
2024/01/24 00:10:17;;;;;;;;;;;15.70;58.20;;;;;;10116202;28;93537;-74
2024/01/24 00:15:19;;;;;;;;;;;15.70;58.00;;;;;;10117274;28;93454;-74
2024/01/24 00:20:21;;;;;;;;;;;15.70;57.80;;;;;;10125394;28;94652;-74
2024/01/24 00:25:24;;;;;;;;;;;15.70;58.20;;;;;;10126894;28;92554;-73
2024/01/24 00:30:25;;;;;;;;;;;15.70;57.50;;;;;;10127213;28;93899;-74
2024/01/24 00:35:27;;;;;;;;;;;15.70;57.40;;;;;;10112890;28;94553;-73
2024/01/24 00:40:29;;;;;;;;;;;15.70;57.40;;;;;;10135310;28;95220;-73
2024/01/24 00:45:31;;;;;;;;;;;15.70;57.20;;;;;;10122619;28;95920;-73
2024/01/24 00:50:34;;;;;;;;;;;15.70;57.80;;;;;;10121743;28;93098;-73
2024/01/24 00:55:36;;;;;;;;;;;15.60;58.20;;;;;;10118759;28;93802;-73
2024/01/24 01:00:38;;;;;;;;;;;15.60;58.40;;;;;;10124248;28;93602;-74
2024/01/24 01:05:40;;;;;;;;;;;15.60;58.20;;;;;;10100690;28;93590;-76
2024/01/24 01:10:41;;;;;;;;;;;15.60;58.10;;;;;;10101469;28;94522;-73
2024/01/24 01:15:43;;;;;;;;;;;15.60;57.90;;;;;;10135430;28;94430;-74
2024/01/24 01:20:46;;;;;;;;;;;15.60;57.90;;;;;;10101899;28;93744;-74
2024/01/24 01:25:47;;;;;;;;;;;15.60;57.70;;;;;;10121986;28;93652;-73
2024/01/24 01:30:49;;;;;;;;;;;15.60;57.60;;;;;;10100466;28;93472;-73
2024/01/24 01:35:51;;;;;;;;;;;15.60;57.50;;;;;;10107682;28;96364;-72
2024/01/24 01:41:01;;;;;;;;;;;15.60;57.40;;;;;;10097513;28;93804;-73
2024/01/24 01:46:05;;;;;;;;;;;15.60;58.10;;;;;;10105412;28;93388;-73
2024/01/24 01:51:07;;;;;;;;;;;15.60;58.50;;;;;;10114481;28;94548;-73
2024/01/24 01:56:10;;;;;;;;;;;15.60;58.60;;;;;;10112575;28;94222;-73
2024/01/24 02:06:32;;;;;;;;;;;15.70;58.40;;;;;;8373402;23;95840;-52
2024/01/24 02:11:34;;;;;;;;;;;15.80;58.10;;;;;;10115274;28;93807;-51
2024/01/24 02:16:36;;;;;;;;;;;15.80;57.80;;;;;;10113416;28;94499;-50
2024/01/24 02:21:37;;;;;;;;;;;15.80;57.60;;;;;;10099199;28;94117;-52
2024/01/24 02:26:39;;;;;;;;;;;15.80;57.50;;;;;;10116935;28;95259;-52
2024/01/24 02:31:41;;;;;;;;;;;15.80;57.40;;;;;;10117212;28;94808;-53
2024/01/24 02:36:43;;;;;;;;;;;15.80;57.30;;;;;;10109058;28;94931;-50
2024/01/24 02:41:44;;;;;;;;;;;15.80;57.70;;;;;;10126285;28;93809;-53
2024/01/24 02:46:46;;;;;;;;;;;15.70;58.20;;;;;;10118142;28;94557;-51
2024/01/24 02:51:48;;;;;;;;;;;15.80;58.40;;;;;;10114062;28;93295;-53
2024/01/24 02:56:50;;;;;;;;;;;15.70;58.20;;;;;;10128178;28;93417;-50
2024/01/24 03:01:52;;;;;;;;;;;15.70;57.90;;;;;;10126425;28;92635;-51
2024/01/24 03:06:55;;;;;;;;;;;15.70;57.80;;;;;;10122729;28;93496;-50
2024/01/24 03:11:57;;;;;;;;;;;15.70;57.60;;;;;;10117671;28;94878;-50
2024/01/24 03:16:59;;;;;;;;;;;15.70;57.50;;;;;;10120754;28;96829;-49
2024/01/24 03:22:01;;;;;;;;;;;15.70;57.40;;;;;;10110201;28;94470;-49
2024/01/24 03:27:02;;;;;;;;;;;15.70;57.20;;;;;;10096196;28;93926;-52
2024/01/24 03:32:05;;;;;;;;;;;15.70;57.60;;;;;;10128060;28;94366;-52
2024/01/24 03:37:06;;;;;;;;;;;15.60;57.80;;;;;;10114694;28;94547;-51
2024/01/24 03:42:08;;;;;;;;;;;15.60;58.00;;;;;;10124216;28;94415;-53
2024/01/24 03:47:10;;;;;;;;;;;15.60;57.90;;;;;;10116165;28;94648;-52
2024/01/24 03:52:12;;;;;;;;;;;15.60;57.60;;;;;;10117336;28;92790;-50
2024/01/24 03:57:13;;;;;;;;;;;15.60;57.40;;;;;;10116918;28;94137;-50
2024/01/24 04:02:16;;;;;;;;;;;15.60;57.20;;;;;;10113400;28;95000;-49
2024/01/24 04:07:18;;;;;;;;;;;15.60;57.10;;;;;;10107918;28;95419;-51
2024/01/24 04:12:20;;;;;;;;;;;15.60;56.90;;;;;;10101844;28;94493;-51
2024/01/24 04:17:22;;;;;;;;;;;15.60;56.70;;;;;;10110878;28;93260;-52
2024/01/24 04:22:24;;;;;;;;;;;15.50;56.50;;;;;;10103308;28;94292;-49
2024/01/24 04:27:25;;;;;;;;;;;15.60;56.90;;;;;;10118272;28;94464;-49
2024/01/24 04:32:27;;;;;;;;;;;15.50;57.30;;;;;;10116461;28;93875;-48
2024/01/24 04:37:29;;;;;;;;;;;15.50;57.50;;;;;;10099513;28;94581;-51
2024/01/24 04:42:31;;;;;;;;;;;15.50;57.70;;;;;;10121594;28;91864;-51
2024/01/24 04:47:33;;;;;;;;;;;15.60;57.40;;;;;;10132558;28;94559;-53
2024/01/24 04:52:35;;;;;;;;;;;15.60;57.10;;;;;;10106200;28;94543;-49
2024/01/24 04:57:37;;;;;;;;;;;15.60;56.80;;;;;;10119139;28;96853;-53
2024/01/24 05:02:39;;;;;;;;;;;15.70;56.50;;;;;;10097947;28;93775;-52
2024/01/24 05:07:41;;;;;;;;;;;15.70;56.30;;;;;;10109566;28;94739;-49
2024/01/24 05:12:43;;;;;;;;;;;15.70;56.20;;;;;;10144994;28;93553;-52
2024/01/24 05:17:44;;;;;;;;;;;15.70;56.20;;;;;;10106918;28;93762;-52
2024/01/24 05:22:46;;;;;;;;;;;15.90;56.20;;;;;;10107900;28;94335;-50
2024/01/24 05:27:49;;;;;;;;;;;16.10;56.40;;;;;;10103387;28;93076;-54
2024/01/24 05:32:51;;;;;;;;;;;16.30;56.10;;;;;;10104439;28;93746;-51
2024/01/24 05:37:53;;;;;;;;;;;16.50;56.80;;;;;;10108447;28;94531;-52
2024/01/24 05:42:55;;;;;;;;;;;16.60;57.00;;;;;;10105157;28;94570;-54
2024/01/24 05:47:57;;;;;;;;;;;16.80;57.00;;;;;;10105057;28;97320;-50
2024/01/24 05:52:59;;;;;;;;;;;16.90;56.80;;;;;;10100485;28;93895;-53
2024/01/24 05:58:01;;;;;;;;;;;16.90;56.50;;;;;;10128891;28;93549;-54
2024/01/24 06:03:04;;;;;;;;;;;16.90;56.40;;;;;;10117254;28;94816;-53
2024/01/24 06:08:05;;;;;;;;;;;16.90;56.30;;;;;;10108150;28;94535;-54
2024/01/24 06:13:07;;;;;;;;;;;16.90;56.10;;;;;;10120741;28;94328;-53
2024/01/24 06:18:09;;;;;;;;;;;17.00;56.10;;;;;;10099573;28;94916;-52
2024/01/24 06:23:11;;;;;;;;;;;16.90;56.00;;;;;;10110754;28;93917;-52
2024/01/24 06:28:13;;;;;;;;;;;16.90;56.20;;;;;;10095677;28;93864;-53
2024/01/24 06:33:15;;;;;;;;;;;17.00;56.10;;;;;;10110701;28;94344;-54
2024/01/24 06:38:17;;;;;;;;;;;17.10;55.90;;;;;;10096204;28;97815;-54
2024/01/24 06:43:20;;;;;;;;;;;17.20;55.60;;;;;;10113553;28;94573;-54
2024/01/24 06:48:22;;;;;;;;;;;17.30;55.50;;;;;;10106468;28;94983;-53
2024/01/24 06:53:24;;;;;;;;;;;17.30;55.30;;;;;;10105128;28;94614;-54
2024/01/24 06:58:26;;;;;;;;;;;17.20;55.30;;;;;;10108204;28;94684;-53
2024/01/24 07:03:28;;;;;;;;;;;17.20;55.40;;;;;;10095634;28;93399;-49
2024/01/24 07:08:30;;;;;;;;;;;17.10;55.50;;;;;;10099024;28;93529;-52
2024/01/24 07:13:32;;;;;;;;;;;17.00;55.50;;;;;;10108545;28;93721;-53
2024/01/24 07:18:34;;;;;;;;;;;16.90;55.70;;;;;;10100641;28;94896;-50
2024/01/24 07:23:36;;;;;;;;;;;16.80;55.80;;;;;;10107882;28;94451;-53
2024/01/24 07:28:38;;;;;;;;;;;16.70;56.00;;;;;;10091714;28;96974;-50
2024/01/24 07:33:40;;;;;;;;;;;16.60;56.10;;;;;;10112345;28;93873;-53
2024/01/24 07:38:42;;;;;;;;;;;16.50;56.20;;;;;;10104606;28;94404;-55
2024/01/24 07:43:44;;;;;;;;;;;16.50;56.40;;;;;;10116855;28;94919;-54
2024/01/24 07:48:46;;;;;;;;;;;16.40;56.50;;;;;;10113458;28;94449;-54
2024/01/24 07:53:48;;;;;;;;;;;16.40;56.60;;;;;;10118392;28;95006;-53
2024/01/24 07:58:50;;;;;;;;;;;16.30;56.70;;;;;;10123269;28;93318;-54
2024/01/24 08:03:52;;;;;;;;;;;16.30;56.80;;;;;;10109437;28;93330;-51
2024/01/24 08:08:54;;;;;;;;;;;16.20;56.90;;;;;;10096843;28;93977;-53
2024/01/24 08:13:56;;;;;;;;;;;16.20;57.10;;;;;;10098807;28;95314;-53
2024/01/24 08:18:58;;;;;;;;;;;16.10;57.10;;;;;;10086268;28;96882;-54
2024/01/24 08:24:01;;;;;;;;;;;16.10;57.30;;;;;;10112398;28;94748;-54
2024/01/24 08:29:03;;;;;;;;;;;16.00;57.50;;;;;;10124345;28;94999;-52
2024/01/24 08:34:04;;;;;;;;;;;16.00;57.40;;;;;;10120360;28;94495;-56
2024/01/24 08:39:07;;;;;;;;;;;16.00;57.50;;;;;;10113914;28;94191;-51
2024/01/24 08:44:08;;;;;;;;;;;16.00;57.50;;;;;;10119209;28;94680;-54
2024/01/24 08:49:12;;;;;;;;;;;15.90;57.60;;;;;;10111526;28;94551;-56
2024/01/24 08:54:14;;;;;;;;;;;15.90;57.60;;;;;;10110344;28;92731;-54
2024/01/24 08:59:17;;;;;;;;;;;15.90;57.70;;;;;;10111856;28;93440;-54
2024/01/24 09:04:18;;;;;;;;;;;15.90;57.60;;;;;;10107725;28;94492;-55
2024/01/24 09:09:20;;;;;;;;;;;15.80;57.70;;;;;;10113583;28;95720;-53
2024/01/24 09:14:23;;;;;;;;;;;15.80;57.70;;;;;;10107244;28;94705;-54
2024/01/24 09:19:26;;;;;;;;;;;15.80;57.70;;;;;;10097535;28;94505;-54
2024/01/24 09:24:28;;;;;;;;;;;15.80;57.60;;;;;;10108885;28;94122;-52
2024/01/24 09:29:30;;;;;;;;;;;15.80;57.50;;;;;;10121953;28;94511;-54
2024/01/24 09:34:32;;;;;;;;;;;15.90;57.40;;;;;;10097961;28;94845;-54
2024/01/24 09:39:34;;;;;;;;;;;16.00;57.20;;;;;;10096782;28;94745;-55
2024/01/24 09:44:36;;;;;;;;;;;16.00;57.00;;;;;;10125779;28;94225;-51
2024/01/24 09:49:38;;;;;;;;;;;16.00;56.80;;;;;;10113347;28;94597;-52
2024/01/24 09:54:41;;;;;;;;;;;16.10;56.80;;;;;;10116484;28;94778;-54
2024/01/24 09:59:43;;;;;;;;;;;16.10;56.80;;;;;;10094476;28;97130;-54
2024/01/24 10:04:45;;;;;;;;;;;16.10;56.80;;;;;;10107522;28;94135;-53
2024/01/24 10:09:47;;;;;;;;;;;16.10;56.90;;;;;;10099377;28;94935;-52
2024/01/24 10:14:50;;;;;;;;;;;16.10;56.90;;;;;;10116242;28;94295;-53
2024/01/24 10:19:52;;;;;;;;;;;16.00;56.80;;;;;;10114457;28;93220;-54
2024/01/24 10:24:54;;;;;;;;;;;16.10;57.00;;;;;;10101219;28;94836;-52
2024/01/24 10:29:57;;;;;;;;;;;16.00;57.00;;;;;;10091244;28;93634;-51
2024/01/24 10:35:03;;;;;;;;;;;16.00;57.00;;;;;;10104303;28;93741;-53
2024/01/24 10:40:06;;;;;;;;;;;16.00;57.20;;;;;;10116682;28;92755;-53
2024/01/24 10:45:08;;;;;;;;;;;15.90;57.10;;;;;;10112466;28;94434;-53
2024/01/24 10:50:12;;;;;;;;;;;15.90;57.20;;;;;;10098680;28;96995;-51
2024/01/24 10:55:20;;;;;;;;;;;15.90;57.20;;;;;;10108705;28;93173;-57
2024/01/24 11:00:22;;;;;;;;;;;15.90;57.20;;;;;;10112589;28;94655;-54
2024/01/24 11:05:34;;;;;;;;;;;15.90;57.20;;;;;;10120762;28;94604;-54
2024/01/24 11:10:37;;;;;;;;;;;15.90;57.30;;;;;;10125468;28;94508;-53
2024/01/24 11:15:40;;;;;;;;;;;15.80;57.20;;;;;;10120307;28;94317;-52
2024/01/24 11:20:49;;;;;;;;;;;15.80;57.30;;;;;;10125133;28;94665;-53
2024/01/24 11:25:50;;;;;;;;;;;15.80;57.30;;;;;;10099044;28;93143;-53
2024/01/24 11:30:53;;;;;;;;;;;15.90;57.20;;;;;;10119863;28;93526;-53
2024/01/24 11:35:55;;;;;;;;;;;15.90;58.00;;;;;;10115221;28;94249;-54
2024/01/24 11:41:00;;;;;;;;;;;16.00;57.00;;;;;;10116477;28;95937;-54
2024/01/24 11:46:05;;;;;;;;;;;16.00;57.00;;;;;;10122390;28;94531;-53
2024/01/24 11:51:09;;;;;;;;;;;16.00;57.00;;;;;;10123094;28;94460;-51
2024/01/24 11:56:12;;;;;;;;;;;16.00;57.00;;;;;;10113882;28;93847;-54
2024/01/24 12:01:15;;;;;;;;;;;16.00;57.00;;;;;;10117179;28;94432;-49
2024/01/24 12:06:17;;;;;;;;;;;16.00;57.10;;;;;;10110452;28;94391;-52
2024/01/24 12:11:20;;;;;;;;;;;15.90;57.00;;;;;;10093296;28;94018;-53
2024/01/24 12:16:23;;;;;;;;;;;15.90;57.10;;;;;;10118934;28;92522;-50
2024/01/24 12:21:25;;;;;;;;;;;15.90;57.10;;;;;;10117773;28;93489;-52
2024/01/24 12:26:30;;;;;;;;;;;15.90;57.20;;;;;;10110747;28;94674;-53
2024/01/24 12:31:32;;;;;;;;;;;15.90;57.20;;;;;;10112391;28;97032;-48
2024/01/24 12:36:34;;;;;;;;;;;15.80;57.10;;;;;;10110587;28;94659;-53
2024/01/24 12:41:39;;;;;;;;;;;15.90;57.40;;;;;;10115115;28;94454;-51
2024/01/24 12:46:40;;;;;;;;;;;15.80;57.40;;;;;;10118709;28;94463;-53
2024/01/24 12:51:42;;;;;;;;;;;15.80;57.40;;;;;;10111679;28;95004;-53
2024/01/24 12:56:46;;;;;;;;;;;15.80;57.50;;;;;;10110980;28;92685;-53
2024/01/24 13:01:49;;;;;;;;;;;15.70;57.50;;;;;;10098064;28;93583;-54
2024/01/24 13:06:51;;;;;;;;;;;15.70;57.60;;;;;;10107652;28;93766;-55
2024/01/24 13:11:54;;;;;;;;;;;15.70;57.60;;;;;;10104909;28;94099;-54
2024/01/24 13:16:57;;;;;;;;;;;15.70;57.60;;;;;;10104673;28;94086;-54
2024/01/24 13:21:59;;;;;;;;;;;15.80;57.70;;;;;;10093251;28;96154;-53
2024/01/24 13:27:01;;;;;;;;;;;15.80;57.50;;;;;;10107244;28;94420;-50
2024/01/24 13:32:03;;;;;;;;;;;15.90;57.30;;;;;;10101399;28;94920;-51
2024/01/24 13:37:06;;;;;;;;;;;15.90;57.20;;;;;;10101830;28;94456;-53
2024/01/24 13:42:08;;;;;;;;;;;15.90;57.10;;;;;;10115733;28;94494;-54
2024/01/24 13:47:10;;;;;;;;;;;15.90;57.10;;;;;;10108030;28;93841;-51
2024/01/24 13:52:12;;;;;;;;;;;16.00;57.10;;;;;;10118954;28;94459;-52
2024/01/24 13:57:14;;;;;;;;;;;15.90;57.10;;;;;;10117563;28;93877;-51
2024/01/24 14:02:15;;;;;;;;;;;15.90;58.10;;;;;;10121311;28;95256;-54
2024/01/24 14:07:20;;;;;;;;;;;15.90;57.20;;;;;;10108697;28;94510;-52
2024/01/24 14:12:22;;;;;;;;;;;15.90;57.20;;;;;;10132767;28;97144;-52
2024/01/24 14:17:23;;;;;;;;;;;15.90;57.30;;;;;;10119827;28;94809;-54
2024/01/24 14:22:25;;;;;;;;;;;15.80;57.30;;;;;;10097945;28;94370;-54
2024/01/24 14:27:27;;;;;;;;;;;15.80;57.30;;;;;;10099205;28;93293;-53
2024/01/24 14:32:29;;;;;;;;;;;15.80;57.30;;;;;;10104660;28;94464;-49
2024/01/24 14:37:31;;;;;;;;;;;15.70;57.30;;;;;;10092758;28;94653;-52
2024/01/24 14:42:35;;;;;;;;;;;15.80;57.50;;;;;;10105219;28;94799;-53
2024/01/24 14:47:37;;;;;;;;;;;15.80;57.50;;;;;;10116273;28;92660;-53
2024/01/24 14:52:39;;;;;;;;;;;15.80;57.30;;;;;;10123951;28;94494;-53
2024/01/24 14:57:41;;;;;;;;;;;15.90;57.20;;;;;;10125418;28;94455;-54
2024/01/24 15:02:43;;;;;;;;;;;15.90;57.10;;;;;;10114994;28;95879;-52
2024/01/24 15:07:45;;;;;;;;;;;15.90;57.10;;;;;;10110825;28;93627;-54
2024/01/24 15:12:47;;;;;;;;;;;15.80;57.00;;;;;;10103260;28;93291;-53
2024/01/24 15:17:51;;;;;;;;;;;15.80;57.00;;;;;;10109992;28;93265;-53
2024/01/24 15:22:54;;;;;;;;;;;15.90;57.00;;;;;;10111153;28;94142;-50
2024/01/24 15:27:55;;;;;;;;;;;15.80;57.00;;;;;;10102469;28;94313;-49
2024/01/24 15:32:57;;;;;;;;;;;15.80;57.00;;;;;;10097386;28;94511;-53
2024/01/24 15:37:59;;;;;;;;;;;15.80;57.10;;;;;;10113755;28;92790;-52
2024/01/24 15:43:02;;;;;;;;;;;15.70;57.10;;;;;;10120943;28;94432;-53
2024/01/24 15:48:05;;;;;;;;;;;15.70;57.20;;;;;;10109660;28;93347;-52
2024/01/24 15:53:07;;;;;;;;;;;15.70;57.20;;;;;;10101845;28;96841;-52
2024/01/24 15:58:09;;;;;;;;;;;15.70;57.30;;;;;;10108288;28;94661;-53
2024/01/24 16:03:12;;;;;;;;;;;15.70;57.20;;;;;;10116294;28;94128;-53
2024/01/24 16:08:17;;;;;;;;;;;15.70;57.50;;;;;;10101307;28;93400;-49
2024/01/24 16:13:22;;;;;;;;;;;15.80;57.30;;;;;;10101917;28;93389;-51
2024/01/24 16:18:24;;;;;;;;;;;15.80;57.30;;;;;;10116313;28;95578;-53
2024/01/24 16:23:26;;;;;;;;;;;16.00;57.10;;;;;;10111646;28;94537;-49
2024/01/24 16:28:28;;;;;;;;;;;16.30;56.70;;;;;;10107266;28;92946;-52
2024/01/24 16:33:30;;;;;;;;;;;16.60;56.80;;;;;;10101586;28;93784;-53
2024/01/24 16:38:32;;;;;;;;;;;17.00;57.20;;;;;;10110240;28;94033;-52
2024/01/24 16:43:36;;;;;;;;;;;17.30;57.40;;;;;;10119191;28;96752;-49
2024/01/24 16:48:38;;;;;;;;;;;17.60;57.50;;;;;;10108934;28;95887;-52
2024/01/24 16:53:40;;;;;;;;;;;17.80;57.40;;;;;;10098696;28;93461;-50
2024/01/24 16:58:42;;;;;;;;;;;18.10;57.50;;;;;;10112879;28;94801;-54
2024/01/24 17:03:44;;;;;;;;;;;18.20;59.80;;;;;;10101910;28;95097;-53
2024/01/24 17:08:46;;;;;;;;;;;18.40;59.00;;;;;;10110808;28;93692;-53
2024/01/24 17:13:48;;;;;;;;;;;18.50;60.70;;;;;;10103487;28;95068;-53
2024/01/24 17:18:50;;;;;;;;;;;18.70;64.30;;;;;;10111801;28;93926;-52
2024/01/24 17:23:52;;;;;;;;;;;18.90;64.40;;;;;;10107801;28;95700;-54
2024/01/24 17:28:54;;;;;;;;;;;19.00;64.30;;;;;;10115722;28;94447;-54
2024/01/24 17:33:58;;;;;;;;;;;19.10;63.50;;;;;;10111724;28;96590;-53
2024/01/24 17:39:04;;;;;;;;;;;19.20;63.30;;;;;;10109865;28;93294;-52
2024/01/24 17:44:06;;;;;;;;;;;19.20;62.20;;;;;;10117559;28;95856;-52
2024/01/24 17:49:08;;;;;;;;;;;19.20;61.90;;;;;;10123499;28;93929;-51
2024/01/24 17:54:10;;;;;;;;;;;19.20;61.70;;;;;;10111876;28;96174;-57
2024/01/24 17:59:12;;;;;;;;;;;19.20;61.50;;;;;;10119550;28;94399;-52
2024/01/24 18:04:15;;;;;;;;;;;19.30;62.20;;;;;;10117851;28;93506;-55
2024/01/24 18:09:17;;;;;;;;;;;19.20;61.60;;;;;;10111769;28;92785;-54
2024/01/24 18:14:19;;;;;;;;;;;19.10;61.30;;;;;;10111375;28;94204;-54
2024/01/24 18:19:21;;;;;;;;;;;19.10;61.30;;;;;;10122705;28;94518;-54
2024/01/24 18:24:23;;;;;;;;;;;19.20;61.20;;;;;;10114407;28;97041;-54
2024/01/24 18:29:25;;;;;;;;;;;19.30;61.10;;;;;;10116112;28;94378;-55
2024/01/24 18:34:29;;;;;;;;;;;19.40;60.70;;;;;;10109692;28;94602;-50
2024/01/24 18:39:32;;;;;;;;;;;19.40;60.20;;;;;;10106674;28;94377;-48
2024/01/24 18:44:34;;;;;;;;;;;19.30;60.00;;;;;;10105784;28;94603;-49
2024/01/24 18:49:35;;;;;;;;;;;19.20;59.90;;;;;;10129957;28;93797;-50
2024/01/24 18:54:38;;;;;;;;;;;19.20;60.40;;;;;;10120977;28;94173;-51
2024/01/24 18:59:40;;;;;;;;;;;19.30;60.60;;;;;;10108037;28;93723;-51
2024/01/24 19:04:41;;;;;;;;;;;19.40;60.10;;;;;;10113444;28;94322;-47
2024/01/24 19:09:44;;;;;;;;;;;19.50;59.80;;;;;;10110257;28;94072;-49
2024/01/24 19:14:46;;;;;;;;;;;19.40;59.70;;;;;;10112421;28;96205;-47
2024/01/24 19:19:48;;;;;;;;;;;19.30;59.80;;;;;;10111731;28;94899;-50
2024/01/24 19:24:51;;;;;;;;;;;19.30;59.90;;;;;;10120515;28;94387;-50
2024/01/24 19:29:53;;;;;;;;;;;19.30;59.70;;;;;;10119126;28;93205;-52
2024/01/24 19:34:58;;;;;;;;;;;19.30;59.70;;;;;;10115936;28;95077;-52
2024/01/24 19:40:00;;;;;;;;;;;19.20;60.60;;;;;;10114802;28;94554;-52
2024/01/24 19:45:03;;;;;;;;;;;19.10;59.80;;;;;;10112708;28;94254;-48
2024/01/24 19:50:07;;;;;;;;;;;19.20;59.90;;;;;;10108282;28;93094;-51
2024/01/24 19:55:09;;;;;;;;;;;19.20;59.60;;;;;;10107380;28;94643;-49
2024/01/24 20:00:12;;;;;;;;;;;19.30;59.30;;;;;;10123303;28;94514;-49
2024/01/24 20:05:14;;;;;;;;;;;19.30;59.10;;;;;;10113939;28;95879;-49
2024/01/24 20:10:16;;;;;;;;;;;19.20;59.00;;;;;;10111713;28;93535;-49
2024/01/24 20:15:18;;;;;;;;;;;19.20;59.10;;;;;;10107190;28;94401;-50
2024/01/24 20:20:22;;;;;;;;;;;19.20;59.40;;;;;;10118545;28;93748;-48
2024/01/24 20:25:24;;;;;;;;;;;19.20;59.10;;;;;;10115870;28;96413;-49
2024/01/24 20:30:26;;;;;;;;;;;19.20;59.00;;;;;;10109172;28;93483;-48
2024/01/24 20:35:28;;;;;;;;;;;19.20;59.20;;;;;;10112809;28;95104;-49
2024/01/24 20:40:30;;;;;;;;;;;19.10;59.40;;;;;;10111418;28;93706;-49
2024/01/24 20:45:32;;;;;;;;;;;19.10;59.40;;;;;;10111824;28;93426;-47
2024/01/24 20:50:34;;;;;;;;;;;19.00;59.40;;;;;;10119691;28;93770;-47
2024/01/24 20:55:39;;;;;;;;;;;18.90;59.60;;;;;;10109875;28;96978;-52
2024/01/24 21:00:41;;;;;;;;;;;18.80;59.70;;;;;;10111014;28;94584;-46
2024/01/24 21:05:44;;;;;;;;;;;18.70;59.90;;;;;;10117800;28;94625;-51
2024/01/24 21:10:46;;;;;;;;;;;18.60;60.00;;;;;;10114283;28;94842;-49
2024/01/24 21:16:02;;;;;;;;;;;18.50;60.30;;;;;;10114128;28;114552;-47
2024/01/24 21:21:04;;;;;;;;;;;18.40;60.40;;;;;;10115945;28;93683;-49
2024/01/24 21:26:06;;;;;;;;;;;18.30;60.50;;;;;;10105478;28;94380;-47
2024/01/24 21:31:09;;;;;;;;;;;18.20;60.60;;;;;;10111150;28;93899;-49
2024/01/24 21:36:11;;;;;;;;;;;18.20;61.60;;;;;;10122123;28;96771;-50
2024/01/24 21:41:13;;;;;;;;;;;18.10;61.30;;;;;;10121821;28;94200;-51
2024/01/24 21:46:14;;;;;;;;;;;18.00;61.30;;;;;;10111062;28;96192;-50
2024/01/24 21:51:16;;;;;;;;;;;18.00;61.50;;;;;;10117073;28;94743;-50
2024/01/24 21:56:18;;;;;;;;;;;17.90;61.60;;;;;;10109568;28;94550;-50
2024/01/24 22:01:21;;;;;;;;;;;17.90;61.90;;;;;;10116701;28;94033;-51
2024/01/24 22:06:23;;;;;;;;;;;17.80;61.90;;;;;;10098026;28;94589;-50
2024/01/24 22:11:27;;;;;;;;;;;17.80;62.20;;;;;;10102500;28;94482;-50
2024/01/24 22:16:29;;;;;;;;;;;17.80;62.40;;;;;;10106884;28;94460;-49
2024/01/24 22:21:31;;;;;;;;;;;17.70;62.30;;;;;;10099871;28;93699;-50
2024/01/24 22:26:34;;;;;;;;;;;17.60;62.10;;;;;;10099846;28;94141;-48
2024/01/24 22:31:35;;;;;;;;;;;17.60;62.20;;;;;;10118208;28;93971;-49
2024/01/24 22:36:37;;;;;;;;;;;17.50;62.20;;;;;;10120546;28;95857;-50
2024/01/24 22:41:41;;;;;;;;;;;17.50;62.10;;;;;;10107266;28;94522;-50
2024/01/24 22:46:43;;;;;;;;;;;17.40;62.10;;;;;;10127519;28;94788;-51
2024/01/24 22:51:45;;;;;;;;;;;17.40;62.10;;;;;;10115990;28;95096;-52
2024/01/24 22:56:47;;;;;;;;;;;17.30;62.00;;;;;;10125164;28;94707;-51
2024/01/24 23:01:49;;;;;;;;;;;17.30;61.90;;;;;;10124437;28;94717;-46
2024/01/24 23:06:51;;;;;;;;;;;17.20;61.90;;;;;;10116211;28;94577;-52
2024/01/24 23:11:53;;;;;;;;;;;17.20;61.90;;;;;;10114866;28;94109;-52
2024/01/24 23:16:55;;;;;;;;;;;17.10;61.60;;;;;;10118830;28;94721;-48
2024/01/24 23:21:57;;;;;;;;;;;17.10;61.20;;;;;;10102820;28;93487;-48
2024/01/24 23:26:59;;;;;;;;;;;17.10;60.80;;;;;;10116385;28;97079;-49
2024/01/24 23:32:01;;;;;;;;;;;17.10;60.30;;;;;;10109574;28;94587;-47
2024/01/24 23:37:02;;;;;;;;;;;17.00;60.10;;;;;;10119797;28;93345;-48
2024/01/24 23:42:04;;;;;;;;;;;17.10;59.80;;;;;;10131458;28;94764;-49
2024/01/24 23:47:06;;;;;;;;;;;17.00;59.50;;;;;;10117837;28;94444;-46
2024/01/24 23:52:08;;;;;;;;;;;17.00;59.10;;;;;;10122165;28;93640;-51
2024/01/24 23:57:10;;;;;;;;;;;17.00;59.00;;;;;;10113557;28;94901;-53
